Time;durP1;ratioP1;P1;durP2;ratioP2;P2;SDS_P1;SDS_P2;PMS_P1;PMS_P2;Temp;Humidity;BMP_temperature;BMP_pressure;BME280_temperature;BME280_humidity;BME280_pressure;Samples;Min_cycle;Max_cycle;Signal;HPM_P1;HPM_P2
2021/04/28 00:01:58;;;;;;;8.38;2.70;;;;;;;;;;5086527;28;20036;-56
2021/04/28 00:04:24;;;;;;;7.80;2.95;;;;;;;;;;5090327;28;20029;-55
2021/04/28 00:06:51;;;;;;;3.80;2.50;;;;;;;;;;5077812;28;20496;-56
2021/04/28 00:09:20;;;;;;;5.15;2.50;;;;;;;;;;5085271;28;20044;-55
2021/04/28 00:11:47;;;;;;;5.30;2.90;;;;;;;;;;5084051;28;20098;-55
2021/04/28 00:14:13;;;;;;;5.47;2.70;;;;;;;;;;5083642;28;20378;-55
2021/04/28 00:16:39;;;;;;;5.72;2.72;;;;;;;;;;5080601;28;20037;-52
2021/04/28 00:19:05;;;;;;;4.72;2.28;;;;;;;;;;5085351;28;20072;-55
2021/04/28 00:21:31;;;;;;;5.43;2.20;;;;;;;;;;5088277;28;20471;-57
2021/04/28 00:23:58;;;;;;;5.28;2.15;;;;;;;;;;5086944;28;20061;-55
2021/04/28 00:26:24;;;;;;;3.78;2.03;;;;;;;;;;5085453;28;20119;-56
2021/04/28 00:28:50;;;;;;;3.50;2.20;;;;;;;;;;5086769;28;20435;-53
2021/04/28 00:31:16;;;;;;;3.03;1.88;;;;;;;;;;5081554;28;20075;-54
2021/04/28 00:33:42;;;;;;;3.38;2.00;;;;;;;;;;5088586;28;20556;-56
2021/04/28 00:36:10;;;;;;;;;;;;;;;;;;5089225;28;20158;-53
2021/04/28 00:38:37;;;;;;;2.92;2.03;;;;;;;;;;5085242;28;19919;-56
2021/04/28 00:41:05;;;;;;;3.15;1.65;;;;;;;;;;5084969;28;20052;-55
2021/04/28 00:43:31;;;;;;;2.05;1.33;;;;;;;;;;5090030;28;20040;-54
2021/04/28 00:45:57;;;;;;;6.50;1.75;;;;;;;;;;5067633;28;20047;-56
2021/04/28 00:48:24;;;;;;;9.05;2.08;;;;;;;;;;5087932;28;20036;-57
2021/04/28 00:50:51;;;;;;;5.07;2.00;;;;;;;;;;5070781;28;20043;-55
2021/04/28 00:53:18;;;;;;;2.20;1.70;;;;;;;;;;5087170;28;20045;-56
2021/04/28 00:55:46;;;;;;;3.53;1.92;;;;;;;;;;5090029;28;20048;-53
2021/04/28 00:58:12;;;;;;;3.22;1.95;;;;;;;;;;5086699;28;20042;-55
2021/04/28 01:00:39;;;;;;;1.20;1.10;;;;;;;;;;5077726;28;20503;-56
2021/04/28 01:03:10;;;;;;;2.35;1.60;;;;;;;;;;5065174;28;20326;-57
2021/04/28 01:05:36;;;;;;;5.30;2.20;;;;;;;;;;5085311;28;20036;-53
2021/04/28 01:08:03;;;;;;;2.60;1.63;;;;;;;;;;5090986;28;20446;-53
2021/04/28 01:10:31;;;;;;;4.13;1.80;;;;;;;;;;5075969;28;20040;-56
2021/04/28 01:13:00;;;;;;;6.15;1.80;;;;;;;;;;5083451;28;20564;-57
2021/04/28 01:15:27;;;;;;;1.50;1.38;;;;;;;;;;5089859;28;20036;-55
2021/04/28 01:17:59;;;;;;;2.83;1.75;;;;;;;;;;5087938;28;20087;-56
2021/04/28 01:20:28;;;;;;;5.28;2.45;;;;;;;;;;5084191;28;20040;-54
2021/04/28 01:22:54;;;;;;;2.50;1.92;;;;;;;;;;5072403;28;20041;-54
2021/04/28 01:25:23;;;;;;;3.57;2.30;;;;;;;;;;5089171;28;20074;-57
2021/04/28 01:27:59;;;;;;;2.95;1.95;;;;;;;;;;5088366;28;20036;-55
2021/04/28 01:30:35;;;;;;;2.40;1.80;;;;;;;;;;5069532;28;20135;-53
2021/04/28 01:33:02;;;;;;;2.47;1.80;;;;;;;;;;5081017;28;20042;-53
2021/04/28 01:35:28;;;;;;;;;;;;;;;;;;5069976;28;20040;-57
2021/04/28 01:37:55;;;;;;;4.25;1.88;;;;;;;;;;5086926;28;20403;-56
2021/04/28 01:40:22;;;;;;;4.40;1.77;;;;;;;;;;5080746;28;20041;-55
2021/04/28 01:42:50;;;;;;;2.55;1.60;;;;;;;;;;5061018;28;20050;-57
2021/04/28 01:45:17;;;;;;;2.22;1.60;;;;;;;;;;5086555;28;20066;-55
2021/04/28 01:47:44;;;;;;;4.55;2.08;;;;;;;;;;5085971;28;20035;-56
2021/04/28 01:50:12;;;;;;;2.92;1.80;;;;;;;;;;5087460;28;20040;-54
2021/04/28 01:52:42;;;;;;;3.10;1.50;;;;;;;;;;5071647;28;20119;-55
2021/04/28 01:55:08;;;;;;;2.15;1.55;;;;;;;;;;5084644;28;20043;-56
2021/04/28 01:57:40;;;;;;;3.20;1.38;;;;;;;;;;5071379;28;20123;-56
2021/04/28 02:00:11;;;;;;;2.80;1.42;;;;;;;;;;5089711;28;20040;-53
2021/04/28 02:02:47;;;;;;;6.43;1.83;;;;;;;;;;5086124;28;20040;-56
2021/04/28 02:05:14;;;;;;;5.82;1.85;;;;;;;;;;5064235;28;20048;-55
2021/04/28 02:07:42;;;;;;;1.48;1.38;;;;;;;;;;5085641;28;20047;-55
2021/04/28 02:10:09;;;;;;;4.30;1.85;;;;;;;;;;5087088;28;20089;-55
2021/04/28 02:12:37;;;;;;;6.65;2.03;;;;;;;;;;5072766;28;20048;-56
2021/04/28 02:15:06;;;;;;;2.83;1.80;;;;;;;;;;5082155;28;20468;-56
2021/04/28 02:17:35;;;;;;;5.68;2.03;;;;;;;;;;5066929;28;20503;-53
2021/04/28 02:20:04;;;;;;;2.45;1.70;;;;;;;;;;5083921;28;20036;-55
2021/04/28 02:22:39;;;;;;;2.53;1.60;;;;;;;;;;5070113;28;20054;-54
2021/04/28 02:25:15;;;;;;;2.42;1.85;;;;;;;;;;5078580;28;20179;-56
2021/04/28 02:28:01;;;;;;;3.25;1.70;;;;;;;;;;5078429;28;20070;-56
2021/04/28 02:30:30;;;;;;;3.08;1.83;;;;;;;;;;5070718;28;20062;-55
2021/04/28 02:32:58;;;;;;;3.35;2.00;;;;;;;;;;5072343;28;20085;-52
2021/04/28 02:35:42;;;;;;;4.30;1.80;;;;;;;;;;5086102;28;20051;-55
2021/04/28 02:38:42;;;;;;;3.33;1.75;;;;;;;;;;5079791;28;20123;-54
2021/04/28 02:41:29;;;;;;;3.50;1.60;;;;;;;;;;5079614;28;20055;-56
2021/04/28 02:43:57;;;;;;;3.03;2.00;;;;;;;;;;5088557;28;20032;-54
2021/04/28 02:46:28;;;;;;;5.28;1.95;;;;;;;;;;5086494;28;20700;-55
2021/04/28 02:48:57;;;;;;;3.40;2.03;;;;;;;;;;5086483;28;20073;-54
2021/04/28 02:51:44;;;;;;;2.45;1.90;;;;;;;;;;5083279;28;20052;-54
2021/04/28 02:54:30;;;;;;;2.60;1.90;;;;;;;;;;5077475;28;20063;-53
2021/04/28 02:56:57;;;;;;;3.63;2.00;;;;;;;;;;5083265;28;20033;-54
2021/04/28 02:59:25;;;;;;;3.88;2.08;;;;;;;;;;5096309;27;20466;-54
2021/04/28 03:01:52;;;;;;;6.93;2.27;;;;;;;;;;5086574;28;20129;-54
2021/04/28 03:04:21;;;;;;;4.32;2.42;;;;;;;;;;5089259;28;20286;-56
2021/04/28 03:07:13;;;;;;;3.55;2.05;;;;;;;;;;5083798;28;20279;-56
2021/04/28 03:09:42;;;;;;;3.78;1.92;;;;;;;;;;5082862;28;20117;-53
2021/04/28 03:12:10;;;;;;;2.47;2.00;;;;;;;;;;5075908;28;20435;-55
2021/04/28 03:14:42;;;;;;;6.07;2.33;;;;;;;;;;5083445;28;20052;-56
2021/04/28 03:17:09;;;;;;;3.10;1.80;;;;;;;;;;5087315;28;20509;-56
2021/04/28 03:19:36;;;;;;;2.73;1.67;;;;;;;;;;5083849;28;20032;-55
2021/04/28 03:22:02;;;;;;;4.63;2.13;;;;;;;;;;5083917;28;20633;-56
2021/04/28 03:24:29;;;;;;;3.13;1.83;;;;;;;;;;5082759;28;20043;-56
2021/04/28 03:27:01;;;;;;;3.13;1.92;;;;;;;;;;5102931;28;20032;-54
2021/04/28 03:29:30;;;;;;;2.63;1.90;;;;;;;;;;5080368;28;20145;-56
2021/04/28 03:31:58;;;;;;;2.58;1.80;;;;;;;;;;5083347;28;20044;-54
2021/04/28 03:34:26;;;;;;;3.05;1.75;;;;;;;;;;5087856;28;20043;-52
2021/04/28 03:36:53;;;;;;;5.15;2.20;;;;;;;;;;5090560;28;20119;-55
2021/04/28 03:39:31;;;;;;;3.42;1.92;;;;;;;;;;5084382;28;20090;-56
2021/04/28 03:41:58;;;;;;;5.40;2.15;;;;;;;;;;5085089;28;20043;-55
2021/04/28 03:44:26;;;;;;;4.82;2.00;;;;;;;;;;5087197;28;20047;-55
2021/04/28 03:46:54;;;;;;;2.65;1.90;;;;;;;;;;5084369;28;20048;-55
2021/04/28 03:49:22;;;;;;;5.70;2.00;;;;;;;;;;5077039;28;20048;-53
2021/04/28 03:51:49;;;;;;;2.55;2.13;;;;;;;;;;5077547;28;20037;-53
2021/04/28 03:54:16;;;;;;;2.65;1.80;;;;;;;;;;5084121;28;20645;-52
2021/04/28 03:56:47;;;;;;;4.90;1.95;;;;;;;;;;5083700;28;20094;-53
2021/04/28 03:59:14;;;;;;;3.83;2.00;;;;;;;;;;5085485;28;20523;-52
2021/04/28 04:01:40;;;;;;;2.28;1.63;;;;;;;;;;5084218;28;20048;-51
2021/04/28 04:04:08;;;;;;;;;;;;;;;;;;5068255;28;20032;-56
2021/04/28 04:07:15;;;;;;;2.55;1.70;;;;;;;;;;5072254;28;19927;-54
2021/04/28 04:10:00;;;;;;;3.35;2.10;;;;;;;;;;5086142;28;20557;-53
2021/04/28 04:12:29;;;;;;;2.88;1.92;;;;;;;;;;5099735;28;20047;-53
2021/04/28 04:14:56;;;;;;;2.13;1.58;;;;;;;;;;5082952;28;21036;-56
2021/04/28 04:17:24;;;;;;;2.85;1.67;;;;;;;;;;5085791;28;20044;-56
2021/04/28 04:20:05;;;;;;;3.17;1.77;;;;;;;;;;5082900;28;20049;-53
2021/04/28 04:22:49;;;;;;;7.30;1.83;;;;;;;;;;5087819;28;20047;-54
2021/04/28 04:25:39;;;;;;;5.57;2.30;;;;;;;;;;5064513;28;20127;-54
2021/04/28 04:28:06;;;;;;;;;;;;;;;;;;5085160;28;20036;-51
2021/04/28 04:30:59;;;;;;;5.60;2.03;;;;;;;;;;5086993;28;20042;-56
2021/04/28 04:33:44;;;;;;;3.55;1.80;;;;;;;;;;5086191;28;20655;-53
2021/04/28 04:36:34;;;;;;;3.05;2.13;;;;;;;;;;5064051;28;20059;-54
2021/04/28 04:39:19;;;;;;;4.60;2.22;;;;;;;;;;5078925;28;20515;-53
2021/04/28 04:42:05;;;;;;;4.20;2.53;;;;;;;;;;5084654;28;20055;-49
2021/04/28 04:44:39;;;;;;;6.28;2.30;;;;;;;;;;5080516;28;20040;-49
2021/04/28 04:47:07;;;;;;;2.67;1.92;;;;;;;;;;5083772;28;20958;-51
2021/04/28 04:49:34;;;;;;;4.78;2.05;;;;;;;;;;5088199;28;20123;-51
2021/04/28 04:52:00;;;;;;;4.60;2.13;;;;;;;;;;5087374;28;20389;-52
2021/04/28 04:54:28;;;;;;;;;;;;;;;;;;5089171;28;20032;-55
2021/04/28 04:56:55;;;;;;;4.10;2.60;;;;;;;;;;5086630;28;19927;-55
2021/04/28 04:59:22;;;;;;;4.10;2.03;;;;;;;;;;5088244;28;20044;-54
2021/04/28 05:01:48;;;;;;;4.40;1.95;;;;;;;;;;5084414;28;20079;-55
2021/04/28 05:04:14;;;;;;;3.25;1.95;;;;;;;;;;5086714;28;20049;-55
2021/04/28 05:06:40;;;;;;;2.05;1.70;;;;;;;;;;5087919;28;20048;-52
2021/04/28 05:09:06;;;;;;;4.82;1.73;;;;;;;;;;5087541;28;20491;-55
2021/04/28 05:11:33;;;;;;;2.15;1.80;;;;;;;;;;5085689;28;20097;-55
2021/04/28 05:13:59;;;;;;;2.67;1.90;;;;;;;;;;5088413;28;20043;-54
2021/04/28 05:16:26;;;;;;;5.22;2.28;;;;;;;;;;5086577;28;20048;-55
2021/04/28 05:18:52;;;;;;;5.95;1.70;;;;;;;;;;5087211;28;20055;-56
2021/04/28 05:21:18;;;;;;;5.40;2.00;;;;;;;;;;5090178;28;20097;-53
2021/04/28 05:23:46;;;;;;;1.70;1.30;;;;;;;;;;5087586;28;20508;-53
2021/04/28 05:26:47;;;;;;;2.65;2.00;;;;;;;;;;5075996;28;20075;-55
2021/04/28 05:29:13;;;;;;;5.22;1.80;;;;;;;;;;5085543;28;20044;-57
2021/04/28 05:31:40;;;;;;;3.88;2.10;;;;;;;;;;5084106;28;20048;-56
2021/04/28 05:34:06;;;;;;;3.58;2.05;;;;;;;;;;5089012;28;20093;-54
2021/04/28 05:36:32;;;;;;;6.88;2.40;;;;;;;;;;5084477;28;20040;-57
2021/04/28 05:39:00;;;;;;;4.70;2.20;;;;;;;;;;5084836;28;20043;-54
2021/04/28 05:41:29;;;;;;;2.78;1.95;;;;;;;;;;5085438;28;20553;-52
2021/04/28 05:43:57;;;;;;;3.63;1.90;;;;;;;;;;5083872;28;20048;-55
2021/04/28 05:46:23;;;;;;;3.38;2.00;;;;;;;;;;5082149;28;20101;-54
2021/04/28 05:48:49;;;;;;;2.95;1.52;;;;;;;;;;5075206;28;20565;-56
2021/04/28 05:51:16;;;;;;;3.05;1.77;;;;;;;;;;5080849;28;20106;-57
2021/04/28 05:53:42;;;;;;;2.63;1.90;;;;;;;;;;5086896;28;20097;-56
2021/04/28 05:56:08;;;;;;;3.50;2.13;;;;;;;;;;5082847;28;20094;-55
2021/04/28 05:58:35;;;;;;;3.03;2.03;;;;;;;;;;5085264;28;20046;-55
2021/04/28 06:01:01;;;;;;;3.97;2.08;;;;;;;;;;5085355;28;20060;-56
2021/04/28 06:03:27;;;;;;;2.63;1.95;;;;;;;;;;5087079;28;20048;-54
2021/04/28 06:05:54;;;;;;;8.18;2.47;;;;;;;;;;5088700;28;20052;-58
2021/04/28 06:08:20;;;;;;;4.45;2.38;;;;;;;;;;5086878;28;20086;-55
2021/04/28 06:10:47;;;;;;;4.17;2.13;;;;;;;;;;5080135;28;20045;-56
2021/04/28 06:13:13;;;;;;;3.37;2.03;;;;;;;;;;5078846;28;20085;-55
2021/04/28 06:15:39;;;;;;;3.67;2.35;;;;;;;;;;5078547;28;20697;-56
2021/04/28 06:18:06;;;;;;;4.40;2.00;;;;;;;;;;5085367;28;20101;-57
2021/04/28 06:20:33;;;;;;;3.30;2.10;;;;;;;;;;5082606;28;20036;-57
2021/04/28 06:23:00;;;;;;;4.35;1.95;;;;;;;;;;5084983;28;20040;-58
2021/04/28 06:25:27;;;;;;;2.75;1.70;;;;;;;;;;5083130;28;20576;-57
2021/04/28 06:27:53;;;;;;;2.63;1.73;;;;;;;;;;5083225;28;20047;-57
2021/04/28 06:30:20;;;;;;;3.60;1.77;;;;;;;;;;5085191;28;20133;-56
2021/04/28 06:32:48;;;;;;;2.35;1.27;;;;;;;;;;5082351;28;20036;-55
2021/04/28 06:35:15;;;;;;;4.88;1.70;;;;;;;;;;5084942;28;20062;-56
2021/04/28 06:37:41;;;;;;;3.53;1.50;;;;;;;;;;5088744;28;20047;-56
2021/04/28 06:40:08;;;;;;;4.28;1.80;;;;;;;;;;5077845;28;20041;-57
2021/04/28 06:42:35;;;;;;;1.80;1.35;;;;;;;;;;5085676;28;20040;-57
2021/04/28 06:45:01;;;;;;;3.35;1.50;;;;;;;;;;5089206;28;20044;-56
2021/04/28 06:47:27;;;;;;;1.70;1.60;;;;;;;;;;5078265;28;20040;-56
2021/04/28 06:49:54;;;;;;;8.85;1.90;;;;;;;;;;5082612;28;20064;-54
2021/04/28 06:52:21;;;;;;;3.65;1.70;;;;;;;;;;5084219;28;20055;-57
2021/04/28 06:54:48;;;;;;;2.83;1.65;;;;;;;;;;5082514;28;20050;-55
2021/04/28 06:57:14;;;;;;;2.58;1.50;;;;;;;;;;5078934;28;20048;-54
2021/04/28 06:59:40;;;;;;;2.92;1.65;;;;;;;;;;5082593;28;20172;-57
2021/04/28 07:02:06;;;;;;;5.35;1.60;;;;;;;;;;5084539;28;20123;-57
2021/04/28 07:04:38;;;;;;;3.75;1.67;;;;;;;;;;5073797;28;20076;-58
2021/04/28 07:07:05;;;;;;;2.90;1.83;;;;;;;;;;5082507;28;20048;-58
2021/04/28 07:09:31;;;;;;;1.92;1.55;;;;;;;;;;5075978;28;20475;-55
2021/04/28 07:11:57;;;;;;;2.88;1.60;;;;;;;;;;5085883;28;20049;-58
2021/04/28 07:14:24;;;;;;;4.40;1.92;;;;;;;;;;5080897;28;20036;-58
2021/04/28 07:16:50;;;;;;;4.97;1.60;;;;;;;;;;5078729;28;20136;-59
2021/04/28 07:19:17;;;;;;;4.22;1.60;;;;;;;;;;5084588;28;20040;-59
2021/04/28 07:21:43;;;;;;;2.30;1.52;;;;;;;;;;5082120;28;20040;-58
2021/04/28 07:24:10;;;;;;;3.15;1.70;;;;;;;;;;5083121;28;20037;-54
2021/04/28 07:26:36;;;;;;;1.90;1.27;;;;;;;;;;5085271;28;20040;-57
2021/04/28 07:29:04;;;;;;;6.65;1.75;;;;;;;;;;5086700;28;20106;-58
2021/04/28 07:31:30;;;;;;;2.40;1.42;;;;;;;;;;5076536;28;20083;-58
2021/04/28 07:33:57;;;;;;;4.57;1.83;;;;;;;;;;5085238;28;20063;-58
2021/04/28 07:36:23;;;;;;;3.43;1.33;;;;;;;;;;5083030;28;20072;-57
2021/04/28 07:38:51;;;;;;;5.28;2.25;;;;;;;;;;5084828;28;20044;-58
2021/04/28 07:41:18;;;;;;;5.80;1.35;;;;;;;;;;5082658;28;20123;-59
2021/04/28 07:43:45;;;;;;;2.25;1.38;;;;;;;;;;5081670;28;20434;-59
2021/04/28 07:46:11;;;;;;;4.93;1.73;;;;;;;;;;5079826;28;20082;-58
2021/04/28 07:48:37;;;;;;;3.55;1.38;;;;;;;;;;5083818;28;20036;-59
2021/04/28 07:51:06;;;;;;;3.03;1.58;;;;;;;;;;5086574;28;20068;-59
2021/04/28 07:53:32;;;;;;;1.88;1.23;;;;;;;;;;5083536;28;20126;-57
2021/04/28 07:55:59;;;;;;;1.70;1.38;;;;;;;;;;5083020;28;20569;-58
2021/04/28 07:58:25;;;;;;;1.70;1.52;;;;;;;;;;5079817;28;20037;-59
2021/04/28 08:00:51;;;;;;;2.63;1.48;;;;;;;;;;5076623;28;20048;-58
2021/04/28 08:03:17;;;;;;;1.63;1.40;;;;;;;;;;5082924;28;20040;-58
2021/04/28 08:05:43;;;;;;;6.13;1.58;;;;;;;;;;5077797;28;20041;-58
2021/04/28 08:08:10;;;;;;;1.45;1.33;;;;;;;;;;5084382;28;20099;-57
2021/04/28 08:10:36;;;;;;;3.47;1.30;;;;;;;;;;5086237;28;20044;-58
2021/04/28 08:13:07;;;;;;;2.33;1.60;;;;;;;;;;5081844;28;20553;-57
2021/04/28 08:15:33;;;;;;;6.55;1.50;;;;;;;;;;5081788;28;20051;-55
2021/04/28 08:17:59;;;;;;;2.30;1.50;;;;;;;;;;5081665;28;20048;-58
2021/04/28 08:20:26;;;;;;;1.65;1.50;;;;;;;;;;5080131;28;20047;-56
2021/04/28 08:22:52;;;;;;;2.45;1.50;;;;;;;;;;5086878;28;20040;-57
2021/04/28 08:25:18;;;;;;;2.15;1.50;;;;;;;;;;5085881;28;20492;-57
2021/04/28 08:27:45;;;;;;;3.70;1.60;;;;;;;;;;5080793;28;20044;-57
2021/04/28 08:30:12;;;;;;;2.90;1.35;;;;;;;;;;5082392;28;20055;-56
2021/04/28 08:32:38;;;;;;;8.30;1.48;;;;;;;;;;5079231;28;20037;-56
2021/04/28 08:35:06;;;;;;;1.88;1.48;;;;;;;;;;5087858;28;20560;-58
2021/04/28 08:37:32;;;;;;;2.85;1.63;;;;;;;;;;5083137;28;20090;-56
2021/04/28 08:40:01;;;;;;;3.63;1.70;;;;;;;;;;5087549;28;20119;-57
2021/04/28 08:42:27;;;;;;;2.63;1.60;;;;;;;;;;5088965;28;20445;-57
2021/04/28 08:44:53;;;;;;;2.83;1.60;;;;;;;;;;5089574;28;20036;-57
2021/04/28 08:47:21;;;;;;;4.18;1.92;;;;;;;;;;5088605;28;20037;-56
2021/04/28 08:49:47;;;;;;;3.80;1.65;;;;;;;;;;5084587;28;20043;-57
2021/04/28 08:52:15;;;;;;;6.72;1.90;;;;;;;;;;5085999;28;20052;-58
2021/04/28 08:54:47;;;;;;;3.53;1.67;;;;;;;;;;5084969;28;20078;-55
2021/04/28 08:57:14;;;;;;;6.15;1.50;;;;;;;;;;5084717;28;20036;-58
2021/04/28 08:59:40;;;;;;;5.47;2.00;;;;;;;;;;5089236;28;20499;-54
2021/04/28 09:02:13;;;;;;;2.78;1.75;;;;;;;;;;5081759;28;20173;-56
2021/04/28 09:04:39;;;;;;;1.77;1.50;;;;;;;;;;5085748;28;20043;-51
2021/04/28 09:07:06;;;;;;;3.08;1.70;;;;;;;;;;5083553;28;20048;-55
2021/04/28 09:09:33;;;;;;;7.75;1.90;;;;;;;;;;5083911;28;20052;-58
2021/04/28 09:11:59;;;;;;;4.28;1.48;;;;;;;;;;5088894;28;20048;-56
2021/04/28 09:14:30;;;;;;;2.47;1.80;;;;;;;;;;5080642;28;20040;-57
2021/04/28 09:17:00;;;;;;;4.78;1.83;;;;;;;;;;5085519;28;20675;-54
2021/04/28 09:19:54;;;;;;;2.33;1.60;;;;;;;;;;5084685;28;20056;-57
2021/04/28 09:22:39;;;;;;;4.78;1.73;;;;;;;;;;5080525;28;20160;-57
2021/04/28 09:25:38;;;;;;;2.60;1.60;;;;;;;;;;5089606;28;20047;-57
2021/04/28 09:28:29;;;;;;;5.03;1.48;;;;;;;;;;5079750;28;20078;-55
2021/04/28 09:31:06;;;;;;;3.15;1.63;;;;;;;;;;5079048;28;20040;-58
2021/04/28 09:33:52;;;;;;;3.97;1.45;;;;;;;;;;5084596;28;20033;-57
2021/04/28 09:36:33;;;;;;;4.07;1.70;;;;;;;;;;5087333;28;20062;-58
2021/04/28 09:39:18;;;;;;;4.65;1.77;;;;;;;;;;5082475;28;20048;-59
2021/04/28 09:41:45;;;;;;;6.30;1.95;;;;;;;;;;5089358;28;20443;-57
2021/04/28 09:44:18;;;;;;;3.80;1.80;;;;;;;;;;5087153;28;20415;-57
2021/04/28 09:47:13;;;;;;;2.22;1.38;;;;;;;;;;5085010;28;20051;-58
2021/04/28 09:49:56;;;;;;;3.58;1.67;;;;;;;;;;5086010;28;20496;-58
2021/04/28 09:52:24;;;;;;;4.57;1.40;;;;;;;;;;5082910;28;20495;-57
2021/04/28 09:54:51;;;;;;;3.83;1.60;;;;;;;;;;5083777;28;20044;-56
2021/04/28 09:57:19;;;;;;;4.85;1.45;;;;;;;;;;5087678;28;20040;-57
2021/04/28 09:59:47;;;;;;;2.72;1.58;;;;;;;;;;5082233;28;20094;-54
2021/04/28 10:02:13;;;;;;;;;;;;;;;;;;5084518;28;20042;-53
2021/04/28 10:04:39;;;;;;;4.03;1.42;;;;;;;;;;5085785;28;19935;-54
2021/04/28 10:07:06;;;;;;;2.15;1.50;;;;;;;;;;5084619;28;20798;-54
2021/04/28 10:09:37;;;;;;;3.60;1.50;;;;;;;;;;5084479;28;20402;-57
2021/04/28 10:12:07;;;;;;;5.05;1.38;;;;;;;;;;5084004;28;20040;-56
2021/04/28 10:14:35;;;;;;;8.63;1.60;;;;;;;;;;5077760;28;20140;-57
2021/04/28 10:17:03;;;;;;;2.88;1.38;;;;;;;;;;5083155;28;20058;-58
2021/04/28 10:19:32;;;;;;;5.70;1.60;;;;;;;;;;5079391;28;20055;-56
2021/04/28 10:21:59;;;;;;;5.03;1.70;;;;;;;;;;5078859;28;20047;-56
2021/04/28 10:24:26;;;;;;;2.03;1.20;;;;;;;;;;5088155;28;20127;-58
2021/04/28 10:26:52;;;;;;;2.15;1.58;;;;;;;;;;5079660;28;20062;-58
2021/04/28 10:29:20;;;;;;;2.65;1.35;;;;;;;;;;5086076;28;20095;-54
2021/04/28 10:31:46;;;;;;;3.05;1.40;;;;;;;;;;5086761;28;20056;-56
2021/04/28 10:34:29;;;;;;;4.22;1.70;;;;;;;;;;5087286;28;20045;-54
2021/04/28 10:36:56;;;;;;;1.75;1.48;;;;;;;;;;5082021;28;20041;-55
2021/04/28 10:39:23;;;;;;;2.38;1.27;;;;;;;;;;5082804;28;20047;-55
2021/04/28 10:41:52;;;;;;;5.40;1.58;;;;;;;;;;5079427;28;20059;-58
2021/04/28 10:44:31;;;;;;;3.13;1.35;;;;;;;;;;5079950;28;20047;-55
2021/04/28 10:47:16;;;;;;;2.67;1.63;;;;;;;;;;5079668;28;20470;-55
2021/04/28 10:50:03;;;;;;;6.78;1.98;;;;;;;;;;5076966;28;20048;-54
2021/04/28 10:52:51;;;;;;;6.25;1.80;;;;;;;;;;5076101;28;20139;-57
2021/04/28 10:55:35;;;;;;;3.45;1.60;;;;;;;;;;5080993;28;20120;-58
2021/04/28 10:58:24;;;;;;;3.25;1.58;;;;;;;;;;5084135;28;20051;-58
2021/04/28 11:01:00;;;;;;;3.80;1.63;;;;;;;;;;5083780;28;20048;-55
2021/04/28 11:03:47;;;;;;;4.10;1.50;;;;;;;;;;5082173;28;20037;-55
2021/04/28 11:06:16;;;;;;;2.60;1.50;;;;;;;;;;5082154;28;20082;-54
2021/04/28 11:08:55;;;;;;;4.88;1.35;;;;;;;;;;5086069;28;20040;-53
2021/04/28 11:11:33;;;;;;;3.67;1.40;;;;;;;;;;5080518;28;20098;-56
2021/04/28 11:14:08;;;;;;;3.15;1.52;;;;;;;;;;5079073;28;20117;-50
2021/04/28 11:16:44;;;;;;;4.57;1.55;;;;;;;;;;5081978;28;20049;-55
2021/04/28 11:19:15;;;;;;;2.08;1.55;;;;;;;;;;5082995;28;20048;-55
2021/04/28 11:21:42;;;;;;;5.60;1.48;;;;;;;;;;5085036;28;20044;-55
2021/04/28 11:24:15;;;;;;;2.85;1.30;;;;;;;;;;5084390;28;20564;-57
2021/04/28 11:26:51;;;;;;;6.22;1.60;;;;;;;;;;5087033;28;20052;-54
2021/04/28 11:29:18;;;;;;;6.22;1.50;;;;;;;;;;5082521;28;20047;-53
2021/04/28 11:31:49;;;;;;;6.70;1.38;;;;;;;;;;5085555;28;20152;-57
2021/04/28 11:34:36;;;;;;;1.23;1.08;;;;;;;;;;5085847;28;20044;-55
2021/04/28 11:37:07;;;;;;;3.80;1.90;;;;;;;;;;5082252;28;20069;-55
2021/04/28 11:39:36;;;;;;;2.97;1.60;;;;;;;;;;5081232;28;20078;-56
2021/04/28 11:42:06;;;;;;;4.78;1.90;;;;;;;;;;5079421;28;20067;-55
2021/04/28 11:44:35;;;;;;;1.92;1.42;;;;;;;;;;5084889;28;20073;-56
2021/04/28 11:47:05;;;;;;;2.70;1.65;;;;;;;;;;5077366;28;20049;-57
2021/04/28 11:49:34;;;;;;;4.72;1.75;;;;;;;;;;5078034;28;20044;-57
2021/04/28 11:52:01;;;;;;;3.22;1.17;;;;;;;;;;5080233;28;20647;-55
2021/04/28 11:54:27;;;;;;;3.60;1.33;;;;;;;;;;5086902;28;20048;-56
2021/04/28 11:56:53;;;;;;;3.45;1.80;;;;;;;;;;5086702;28;20101;-58
2021/04/28 11:59:27;;;;;;;4.73;1.50;;;;;;;;;;5089265;28;20044;-57
2021/04/28 12:01:54;;;;;;;3.88;1.58;;;;;;;;;;5088096;28;20040;-56
2021/04/28 12:04:27;;;;;;;3.88;1.48;;;;;;;;;;5089152;28;20048;-53
2021/04/28 12:06:56;;;;;;;2.13;1.50;;;;;;;;;;5084853;28;20431;-56
2021/04/28 12:09:36;;;;;;;2.22;1.50;;;;;;;;;;5087738;28;20086;-56
2021/04/28 12:12:11;;;;;;;2.45;1.50;;;;;;;;;;5079072;28;20115;-55
2021/04/28 12:14:38;;;;;;;2.15;1.63;;;;;;;;;;5082391;28;20074;-58
2021/04/28 12:17:04;;;;;;;4.20;1.60;;;;;;;;;;5080437;28;20089;-56
2021/04/28 12:19:35;;;;;;;7.22;1.70;;;;;;;;;;5091097;28;20135;-57
2021/04/28 12:22:08;;;;;;;4.45;1.73;;;;;;;;;;5088399;28;20059;-57
2021/04/28 12:24:34;;;;;;;3.53;1.40;;;;;;;;;;5086114;28;20036;-57
2021/04/28 12:27:10;;;;;;;2.85;1.20;;;;;;;;;;5088304;28;20048;-58
2021/04/28 12:29:43;;;;;;;4.32;1.40;;;;;;;;;;5085221;28;20086;-57
2021/04/28 12:32:10;;;;;;;1.20;1.08;;;;;;;;;;5084861;28;20048;-56
2021/04/28 12:34:37;;;;;;;1.48;1.30;;;;;;;;;;5084833;28;20048;-57
2021/04/28 12:37:26;;;;;;;4.68;1.38;;;;;;;;;;5083736;28;20109;-55
2021/04/28 12:39:53;;;;;;;1.90;1.60;;;;;;;;;;5088421;28;20048;-57
2021/04/28 12:42:25;;;;;;;4.80;1.50;;;;;;;;;;5081321;28;20040;-55
2021/04/28 12:44:51;;;;;;;2.80;1.40;;;;;;;;;;5083891;28;20044;-56
2021/04/28 12:47:29;;;;;;;1.60;1.40;;;;;;;;;;5089362;28;20050;-56
2021/04/28 12:50:03;;;;;;;6.78;1.58;;;;;;;;;;5086326;28;20047;-57
2021/04/28 12:52:33;;;;;;;3.85;1.33;;;;;;;;;;5087861;28;20044;-56
2021/04/28 12:55:19;;;;;;;6.45;1.40;;;;;;;;;;5083921;28;20049;-57
2021/04/28 12:58:12;;;;;;;4.18;1.67;;;;;;;;;;5078094;28;20044;-58
2021/04/28 13:00:43;;;;;;;4.60;1.58;;;;;;;;;;5084936;28;20101;-57
2021/04/28 13:03:11;;;;;;;5.28;1.77;;;;;;;;;;5088775;28;20109;-53
2021/04/28 13:05:37;;;;;;;;;;;;;;;;;;5084939;28;20059;-57
2021/04/28 13:08:18;;;;;;;3.58;1.60;;;;;;;;;;5081467;28;19924;-57
2021/04/28 13:10:56;;;;;;;4.50;1.50;;;;;;;;;;5086619;28;20044;-57
2021/04/28 13:13:33;;;;;;;7.57;1.40;;;;;;;;;;5083149;28;20093;-57
2021/04/28 13:15:59;;;;;;;1.80;1.23;;;;;;;;;;5084978;28;20052;-57
2021/04/28 13:18:26;;;;;;;3.00;1.80;;;;;;;;;;5084707;28;20583;-55
2021/04/28 13:20:52;;;;;;;4.30;1.50;;;;;;;;;;5087629;28;20048;-55
2021/04/28 13:23:19;;;;;;;3.70;1.40;;;;;;;;;;5086378;28;20041;-55
2021/04/28 13:25:50;;;;;;;1.45;1.33;;;;;;;;;;5086020;28;20062;-55
2021/04/28 13:28:25;;;;;;;2.40;1.63;;;;;;;;;;5087370;28;20138;-57
2021/04/28 13:30:52;;;;;;;3.08;1.60;;;;;;;;;;5087350;28;20063;-56
2021/04/28 13:33:18;;;;;;;3.88;1.38;;;;;;;;;;5088122;28;20045;-56
2021/04/28 13:35:45;;;;;;;3.60;1.40;;;;;;;;;;5086108;28;20043;-53
2021/04/28 13:38:11;;;;;;;4.30;1.70;;;;;;;;;;5082989;28;20094;-57
2021/04/28 13:40:38;;;;;;;3.55;1.80;;;;;;;;;;5084171;28;20050;-58
2021/04/28 13:43:06;;;;;;;2.30;1.63;;;;;;;;;;5091003;28;20040;-56
2021/04/28 13:45:32;;;;;;;;;;;;;;;;;;5089979;28;20060;-56
2021/04/28 13:47:59;;;;;;;2.95;1.42;;;;;;;;;;5092139;28;19920;-58
2021/04/28 13:50:26;;;;;;;5.10;1.20;;;;;;;;;;5089346;28;20519;-55
2021/04/28 13:52:52;;;;;;;3.75;1.30;;;;;;;;;;5089038;28;20059;-56
2021/04/28 13:55:18;;;;;;;3.55;1.60;;;;;;;;;;5081580;28;20040;-58
2021/04/28 13:57:44;;;;;;;3.00;1.63;;;;;;;;;;5084882;28;20407;-56
2021/04/28 14:00:16;;;;;;;2.67;1.48;;;;;;;;;;5082905;28;20049;-56
2021/04/28 14:02:42;;;;;;;4.10;1.58;;;;;;;;;;5080973;28;20140;-55
2021/04/28 14:05:10;;;;;;;2.45;1.42;;;;;;;;;;5080494;28;20044;-54
2021/04/28 14:07:37;;;;;;;3.00;1.80;;;;;;;;;;5081214;28;20047;-56
2021/04/28 14:10:04;;;;;;;3.60;1.75;;;;;;;;;;5082595;28;20385;-58
2021/04/28 14:12:30;;;;;;;2.05;1.52;;;;;;;;;;5082751;28;20075;-57
2021/04/28 14:14:56;;;;;;;5.93;1.40;;;;;;;;;;5082695;28;20071;-57
2021/04/28 14:17:22;;;;;;;4.47;1.90;;;;;;;;;;5085898;28;20439;-55
2021/04/28 14:19:48;;;;;;;4.15;1.80;;;;;;;;;;5081446;28;20056;-55
2021/04/28 14:22:15;;;;;;;3.45;1.75;;;;;;;;;;5085753;28;20044;-57
2021/04/28 14:24:41;;;;;;;3.55;1.52;;;;;;;;;;5083109;28;20093;-54
2021/04/28 14:27:08;;;;;;;3.55;1.83;;;;;;;;;;5089769;28;20051;-56
2021/04/28 14:29:36;;;;;;;2.10;1.40;;;;;;;;;;5080974;28;20097;-57
2021/04/28 14:32:22;;;;;;;2.72;1.48;;;;;;;;;;5085221;28;20042;-58
2021/04/28 14:34:48;;;;;;;2.05;1.42;;;;;;;;;;5085628;28;20500;-56
2021/04/28 14:37:14;;;;;;;2.75;1.40;;;;;;;;;;5082029;28;20051;-57
2021/04/28 14:39:40;;;;;;;8.77;1.83;;;;;;;;;;5083839;28;20499;-56
2021/04/28 14:42:07;;;;;;;2.25;1.60;;;;;;;;;;5086411;28;20470;-58
2021/04/28 14:44:33;;;;;;;6.05;1.95;;;;;;;;;;5086574;28;20109;-57
2021/04/28 14:47:00;;;;;;;4.03;1.60;;;;;;;;;;5088552;28;20052;-57
2021/04/28 14:49:29;;;;;;;3.13;1.52;;;;;;;;;;5083877;28;20039;-57
2021/04/28 14:51:55;;;;;;;4.57;1.52;;;;;;;;;;5081287;28;20584;-58
2021/04/28 14:54:24;;;;;;;8.43;1.52;;;;;;;;;;5079131;28;20118;-55
2021/04/28 14:56:50;;;;;;;4.40;1.73;;;;;;;;;;5083702;28;20192;-56
2021/04/28 14:59:16;;;;;;;3.35;1.67;;;;;;;;;;5080450;28;20094;-56
2021/04/28 15:01:43;;;;;;;2.65;1.30;;;;;;;;;;5079409;28;20039;-55
2021/04/28 15:04:09;;;;;;;3.77;1.73;;;;;;;;;;5084458;28;20036;-56